createdAt,value
2018-10-11T00:00:50.219Z,0.00
2018-10-11T00:01:50.135Z,0.00
2018-10-11T00:02:50.060Z,0.00
2018-10-11T00:03:49.973Z,0.00
2018-10-11T00:04:49.902Z,0.00
2018-10-11T00:05:49.815Z,0.00
2018-10-11T00:06:49.773Z,0.00
2018-10-11T00:07:49.659Z,0.00
2018-10-11T00:08:49.586Z,0.00
2018-10-11T00:09:49.501Z,0.00
2018-10-11T00:10:49.428Z,0.00
2018-10-11T00:11:49.342Z,0.00
2018-10-11T00:12:49.271Z,0.00
2018-10-11T00:13:49.185Z,0.00
2018-10-11T00:14:49.112Z,0.00
2018-10-11T00:15:49.065Z,0.00
2018-10-11T00:16:48.957Z,0.00
2018-10-11T00:17:48.868Z,0.00
2018-10-11T00:18:48.796Z,0.00
2018-10-11T00:19:48.732Z,0.00
2018-10-11T00:20:48.640Z,0.00
2018-10-11T00:21:48.556Z,0.00
2018-10-11T00:22:48.480Z,0.00
2018-10-11T00:23:48.393Z,0.00
2018-10-11T00:24:48.321Z,0.00
2018-10-11T00:25:48.240Z,0.00
2018-10-11T00:26:48.169Z,0.00
2018-10-11T00:27:48.078Z,0.00
2018-10-11T00:28:48.016Z,0.00
2018-10-11T00:29:47.921Z,0.00
2018-10-11T00:30:47.918Z,0.00
2018-10-11T00:31:47.761Z,0.00
2018-10-11T00:32:47.692Z,0.00
2018-10-11T00:33:47.604Z,0.00
2018-10-11T00:34:47.531Z,0.00
2018-10-11T00:35:47.444Z,0.00
2018-10-11T00:36:47.373Z,0.00
2018-10-11T00:37:47.287Z,0.00
2018-10-11T00:38:47.226Z,0.00
2018-10-11T00:39:47.131Z,0.00
2018-10-11T00:40:47.059Z,0.00
2018-10-11T00:41:46.971Z,0.00
2018-10-11T00:42:46.898Z,0.00
2018-10-11T00:43:46.815Z,0.00
2018-10-11T00:44:46.746Z,0.00
2018-10-11T00:45:46.655Z,0.00
2018-10-11T00:46:46.582Z,0.00
2018-10-11T00:47:46.495Z,0.00
2018-10-11T00:48:46.433Z,0.00
2018-10-11T00:49:46.338Z,0.00
2018-10-11T00:50:46.284Z,0.00
2018-10-11T00:51:46.185Z,0.00
2018-10-11T00:52:46.108Z,0.00
2018-10-11T00:53:46.021Z,0.00
2018-10-11T00:54:45.948Z,0.00
2018-10-11T00:55:45.862Z,0.00
2018-10-11T00:56:45.791Z,0.00
2018-10-11T00:57:45.704Z,0.00
2018-10-11T00:58:45.632Z,0.00
2018-10-11T00:59:45.546Z,0.00
2018-10-11T01:00:45.474Z,0.00
2018-10-11T01:01:45.393Z,0.00
2018-10-11T01:02:45.318Z,0.00
2018-10-11T01:03:45.245Z,0.00
2018-10-11T01:04:45.158Z,0.00
2018-10-11T01:05:45.073Z,0.00
2018-10-11T01:06:45.002Z,0.00
2018-10-11T01:07:44.913Z,0.00
2018-10-11T01:08:44.835Z,0.00
2018-10-11T01:09:44.764Z,0.00
2018-10-11T01:10:44.676Z,0.00
2018-10-11T01:11:44.610Z,0.00
2018-10-11T01:12:44.516Z,0.00
2018-10-11T01:13:44.445Z,0.00
2018-10-11T01:14:44.360Z,0.00
2018-10-11T01:15:44.294Z,0.00
2018-10-11T01:16:44.200Z,0.00
2018-10-11T01:17:44.129Z,0.00
2018-10-11T01:18:44.040Z,0.00
2018-10-11T01:19:43.976Z,0.00
2018-10-11T01:20:43.885Z,0.00
2018-10-11T01:21:43.819Z,0.00
2018-10-11T01:22:43.723Z,0.00
2018-10-11T01:23:43.684Z,0.00
2018-10-11T01:24:43.574Z,0.00
2018-10-11T01:25:43.494Z,0.00
2018-10-11T01:26:43.409Z,0.00
2018-10-11T01:27:43.338Z,0.00
2018-10-11T01:28:43.254Z,0.00
2018-10-11T01:29:43.265Z,0.00
2018-10-11T01:30:43.091Z,0.00
2018-10-11T01:31:43.020Z,0.00
2018-10-11T01:32:42.934Z,0.00
2018-10-11T01:33:42.862Z,0.00
2018-10-11T01:34:42.782Z,0.00
2018-10-11T01:35:42.703Z,0.00
2018-10-11T01:36:42.617Z,0.00
2018-10-11T01:37:42.544Z,0.00
2018-10-11T01:38:42.463Z,0.00
2018-10-11T01:39:42.383Z,0.00
2018-10-11T01:40:42.298Z,0.00
2018-10-11T01:41:42.225Z,0.00
2018-10-11T01:42:42.138Z,0.00
2018-10-11T01:43:42.066Z,0.00
2018-10-11T01:44:41.979Z,0.00
2018-10-11T01:45:41.916Z,0.00
2018-10-11T01:46:41.824Z,0.00
2018-10-11T01:47:41.752Z,0.00
2018-10-11T01:48:41.664Z,0.00
2018-10-11T01:49:41.591Z,0.00
2018-10-11T01:50:41.508Z,0.00
2018-10-11T01:51:41.431Z,0.00
2018-10-11T01:52:41.353Z,0.00
2018-10-11T01:53:41.279Z,0.00
2018-10-11T01:54:41.186Z,0.00
2018-10-11T01:55:41.116Z,0.00
2018-10-11T01:56:41.093Z,0.00
2018-10-11T01:57:40.967Z,0.00
2018-10-11T01:58:40.869Z,0.00
2018-10-11T01:59:40.800Z,0.00
2018-10-11T02:00:40.716Z,0.00
2018-10-11T02:01:40.639Z,0.00
2018-10-11T02:02:40.551Z,0.00
2018-10-11T02:03:40.488Z,0.00
2018-10-11T02:04:40.397Z,0.00
2018-10-11T02:05:40.322Z,0.00
2018-10-11T02:06:40.237Z,0.00
2018-10-11T02:07:40.168Z,0.00
2018-10-11T02:08:40.081Z,0.00
2018-10-11T02:09:40.010Z,0.00
2018-10-11T02:10:39.918Z,0.00
2018-10-11T02:11:39.849Z,0.00
2018-10-11T02:12:39.764Z,0.00
2018-10-11T02:13:39.688Z,0.00
2018-10-11T02:14:39.600Z,0.00
2018-10-11T02:15:39.531Z,0.00
2018-10-11T02:16:39.451Z,0.00
2018-10-11T02:17:39.393Z,0.00
2018-10-11T02:18:39.282Z,0.00
2018-10-11T02:19:39.218Z,0.00
2018-10-11T02:20:39.123Z,0.00
2018-10-11T02:21:39.055Z,0.00
2018-10-11T02:22:38.975Z,0.00
2018-10-11T02:23:38.895Z,0.00
2018-10-11T02:24:38.809Z,0.00
2018-10-11T02:25:38.735Z,0.00
2018-10-11T02:26:38.650Z,0.00
2018-10-11T02:27:38.585Z,0.00
2018-10-11T02:28:38.490Z,0.00
2018-10-11T02:29:38.423Z,0.00
2018-10-11T02:30:38.334Z,0.00
2018-10-11T02:31:38.257Z,0.00
2018-10-11T02:32:38.171Z,0.00
2018-10-11T02:33:38.103Z,0.00
2018-10-11T02:34:38.013Z,0.00
2018-10-11T02:35:37.941Z,0.00
2018-10-11T02:36:37.856Z,0.00
2018-10-11T02:37:37.785Z,0.00
2018-10-11T02:38:37.695Z,0.00
2018-10-11T02:39:37.624Z,0.00
2018-10-11T02:40:37.542Z,0.00
2018-10-11T02:41:37.477Z,0.00
2018-10-11T02:42:37.383Z,0.00
2018-10-11T02:43:37.309Z,0.00
2018-10-11T02:44:37.220Z,0.00
2018-10-11T02:45:37.151Z,0.00
2018-10-11T02:46:37.063Z,0.00
2018-10-11T02:47:36.992Z,0.00
2018-10-11T02:48:36.903Z,0.00
2018-10-11T02:49:36.832Z,0.00
2018-10-11T02:50:36.744Z,0.00
2018-10-11T02:51:36.671Z,0.00
2018-10-11T02:52:36.584Z,0.00
2018-10-11T02:53:36.514Z,0.00
2018-10-11T02:54:36.424Z,0.00
2018-10-11T02:55:36.359Z,0.00
2018-10-11T02:56:36.265Z,0.00
2018-10-11T02:57:36.200Z,0.00
2018-10-11T02:58:36.107Z,0.00
2018-10-11T02:59:36.036Z,0.00
2018-10-11T03:00:35.950Z,0.00
2018-10-11T03:01:35.881Z,0.00
2018-10-11T03:02:35.788Z,0.00
2018-10-11T03:03:35.720Z,0.00
2018-10-11T03:04:35.632Z,0.00
2018-10-11T03:05:35.559Z,0.00
2018-10-11T03:06:35.472Z,0.00
2018-10-11T03:07:35.403Z,0.00
2018-10-11T03:08:35.315Z,0.00
2018-10-11T03:09:35.242Z,0.00
2018-10-11T03:10:35.155Z,0.00
2018-10-11T03:11:35.082Z,0.00
2018-10-11T03:12:35.000Z,0.00
2018-10-11T03:13:34.925Z,0.00
2018-10-11T03:14:34.837Z,0.00
2018-10-11T03:15:34.767Z,0.00
2018-10-11T03:16:34.680Z,0.00
2018-10-11T03:17:34.607Z,0.00
2018-10-11T03:18:34.518Z,0.00
2018-10-11T03:19:34.446Z,0.00
2018-10-11T03:20:34.359Z,0.00
2018-10-11T03:21:34.290Z,0.00
2018-10-11T03:22:34.203Z,0.00
2018-10-11T03:23:34.133Z,0.00
2018-10-11T03:24:34.044Z,0.00
2018-10-11T03:25:33.970Z,0.00
2018-10-11T03:26:33.881Z,0.00
2018-10-11T03:27:33.810Z,0.00
2018-10-11T03:28:33.725Z,0.00
2018-10-11T03:29:33.654Z,0.00
2018-10-11T03:30:33.566Z,0.00
2018-10-11T03:31:33.492Z,0.00
2018-10-11T03:32:33.406Z,0.00
2018-10-11T03:33:33.340Z,0.00
2018-10-11T03:34:33.247Z,0.00
2018-10-11T03:35:33.176Z,0.00
2018-10-11T03:36:33.088Z,0.00
2018-10-11T03:37:33.017Z,0.00
2018-10-11T03:38:32.929Z,0.00
2018-10-11T03:39:32.859Z,0.00
2018-10-11T03:40:32.771Z,0.00
2018-10-11T03:41:32.703Z,0.00
2018-10-11T03:42:32.611Z,0.00
2018-10-11T03:43:32.538Z,0.00
2018-10-11T03:44:32.451Z,0.00
2018-10-11T03:45:32.382Z,0.00
2018-10-11T03:46:32.355Z,0.00
2018-10-11T03:47:32.222Z,0.00
2018-10-11T03:48:32.134Z,0.00
2018-10-11T03:49:32.142Z,0.00
2018-10-11T03:50:31.982Z,0.00
2018-10-11T03:51:31.952Z,0.00
2018-10-11T03:52:31.820Z,0.00
2018-10-11T03:53:31.759Z,0.00
2018-10-11T03:54:31.662Z,0.00
2018-10-11T03:55:31.674Z,0.00
2018-10-11T03:56:31.500Z,0.00
2018-10-11T03:57:31.486Z,0.00
2018-10-11T03:58:31.343Z,0.00
2018-10-11T03:59:31.269Z,0.00
2018-10-11T04:00:31.178Z,0.00
2018-10-11T04:01:31.204Z,0.00
2018-10-11T04:02:31.020Z,0.00
2018-10-11T04:03:31.004Z,0.00
2018-10-11T04:04:30.861Z,0.00
2018-10-11T04:05:30.811Z,0.00
2018-10-11T04:06:30.692Z,0.00
2018-10-11T04:07:30.772Z,0.00
2018-10-11T04:08:30.535Z,0.00
2018-10-11T04:09:30.532Z,0.00
2018-10-11T04:10:30.386Z,0.00
2018-10-11T04:11:30.340Z,0.00
2018-10-11T04:12:30.217Z,0.00
2018-10-11T04:13:30.144Z,0.00
2018-10-11T04:14:30.056Z,0.00
2018-10-11T04:15:30.020Z,0.00
2018-10-11T04:16:29.897Z,0.00
2018-10-11T04:17:29.866Z,0.00
2018-10-11T04:18:29.737Z,0.00
2018-10-11T04:19:29.676Z,0.00
2018-10-11T04:20:29.577Z,0.00
2018-10-11T04:21:29.584Z,0.00
2018-10-11T04:22:29.415Z,0.00
2018-10-11T04:23:29.393Z,0.00
2018-10-11T04:24:29.261Z,0.00
2018-10-11T04:25:29.202Z,0.00
2018-10-11T04:26:29.106Z,0.00
2018-10-11T04:27:29.030Z,0.00
2018-10-11T04:28:28.938Z,0.00
2018-10-11T04:29:28.923Z,0.00
2018-10-11T04:30:28.783Z,0.00
2018-10-11T04:31:28.728Z,0.00
2018-10-11T04:32:28.618Z,0.00
2018-10-11T04:33:28.640Z,0.00
2018-10-11T04:34:28.460Z,0.00
2018-10-11T04:35:28.449Z,0.00
2018-10-11T04:36:28.301Z,0.00
2018-10-11T04:37:28.257Z,0.00
2018-10-11T04:38:28.143Z,0.00
2018-10-11T04:39:28.168Z,0.00
2018-10-11T04:40:27.981Z,0.00
2018-10-11T04:41:27.977Z,0.00
2018-10-11T04:42:27.825Z,0.00
2018-10-11T04:43:27.786Z,0.00
2018-10-11T04:44:27.662Z,0.00
2018-10-11T04:45:27.699Z,0.00
2018-10-11T04:46:27.504Z,0.00
2018-10-11T04:47:27.504Z,0.00
2018-10-11T04:48:27.349Z,0.00
2018-10-11T04:49:27.313Z,0.00
2018-10-11T04:50:27.186Z,0.00
2018-10-11T04:51:27.236Z,0.00
2018-10-11T04:52:27.027Z,0.00
2018-10-11T04:53:26.963Z,0.00
2018-10-11T04:54:26.870Z,0.00
2018-10-11T04:55:26.842Z,0.00
2018-10-11T04:56:26.706Z,0.00
2018-10-11T04:57:26.640Z,0.00
2018-10-11T04:58:26.549Z,0.00
2018-10-11T04:59:26.480Z,0.00
2018-10-11T05:00:26.393Z,0.00
2018-10-11T05:01:26.514Z,0.00
2018-10-11T05:02:26.404Z,0.00
2018-10-11T05:03:26.454Z,0.00
2018-10-11T05:04:26.207Z,0.00
2018-10-11T05:05:26.175Z,0.00
2018-10-11T05:06:25.912Z,0.00
2018-10-11T05:07:25.897Z,0.00
2018-10-11T05:08:25.759Z,4.00
2018-10-11T05:09:25.847Z,0.00
2018-10-11T05:10:25.595Z,0.00
2018-10-11T05:11:25.617Z,4.00
2018-10-11T05:12:25.435Z,0.00
2018-10-11T05:13:25.449Z,4.00
2018-10-11T05:14:25.281Z,0.00
2018-10-11T05:15:25.236Z,4.00
2018-10-11T05:16:25.117Z,0.00
2018-10-11T05:17:25.206Z,4.00
2018-10-11T05:18:24.957Z,4.00
2018-10-11T05:19:24.883Z,4.00
2018-10-11T05:20:24.809Z,8.00
2018-10-11T05:21:24.799Z,8.00
2018-10-11T05:22:24.637Z,8.00
2018-10-11T05:23:24.568Z,8.00
2018-10-11T05:24:24.483Z,8.00
2018-10-11T05:25:24.406Z,8.00
2018-10-11T05:26:24.318Z,12.00
2018-10-11T05:27:24.298Z,12.00
2018-10-11T05:28:24.157Z,12.00
2018-10-11T05:29:24.088Z,16.00
2018-10-11T05:30:24.000Z,20.00
2018-10-11T05:31:24.009Z,16.00
2018-10-11T05:32:23.897Z,20.00
2018-10-11T05:33:23.817Z,24.00
2018-10-11T05:34:23.679Z,24.00
2018-10-11T05:35:23.626Z,24.00
2018-10-11T05:36:23.524Z,28.00
2018-10-11T05:37:23.538Z,28.00
2018-10-11T05:38:23.361Z,32.00
2018-10-11T05:39:23.342Z,36.00
2018-10-11T05:40:23.198Z,36.00
2018-10-11T05:41:23.156Z,40.00
2018-10-11T05:42:23.047Z,44.00
2018-10-11T05:43:23.065Z,48.00
2018-10-11T05:44:22.905Z,48.00
2018-10-11T05:45:22.874Z,48.00
2018-10-11T05:46:22.722Z,52.00
2018-10-11T05:47:22.686Z,56.00
2018-10-11T05:48:22.562Z,56.00
2018-10-11T05:49:22.590Z,60.00
2018-10-11T05:50:22.555Z,64.00
2018-10-11T05:51:22.406Z,68.00
2018-10-11T05:52:22.500Z,68.00
2018-10-11T05:53:22.212Z,68.00
2018-10-11T05:54:22.084Z,76.00
2018-10-11T05:55:22.122Z,76.00
2018-10-11T05:56:21.928Z,80.00
2018-10-11T05:57:21.871Z,80.00
2018-10-11T05:58:21.765Z,84.00
2018-10-11T05:59:21.737Z,88.00
2018-10-11T06:00:21.622Z,92.00
2018-10-11T06:01:21.550Z,92.00
2018-10-11T06:02:21.446Z,96.00
2018-10-11T06:03:21.460Z,100.00
2018-10-11T06:04:21.369Z,100.00
2018-10-11T06:05:21.268Z,104.00
2018-10-11T06:06:21.133Z,108.00
2018-10-11T06:07:21.077Z,108.00
2018-10-11T06:08:21.012Z,108.00
2018-10-11T06:09:20.985Z,112.00
2018-10-11T06:10:20.806Z,116.00
2018-10-11T06:11:20.797Z,120.00
2018-10-11T06:12:20.652Z,120.00
2018-10-11T06:13:20.607Z,120.00
2018-10-11T06:14:20.486Z,124.00
2018-10-11T06:15:20.515Z,128.00
2018-10-11T06:16:20.325Z,132.00
2018-10-11T06:17:20.323Z,132.00
2018-10-11T06:18:20.169Z,136.00
2018-10-11T06:19:20.132Z,136.00
2018-10-11T06:20:20.008Z,140.00
2018-10-11T06:21:20.042Z,144.00
2018-10-11T06:22:19.879Z,144.00
2018-10-11T06:23:19.785Z,148.00
2018-10-11T06:24:19.690Z,148.00
2018-10-11T06:25:19.617Z,156.00
2018-10-11T06:26:19.527Z,156.00
2018-10-11T06:27:19.469Z,160.00
2018-10-11T06:28:19.372Z,164.00
2018-10-11T06:29:19.300Z,172.00
2018-10-11T06:30:19.263Z,176.00
2018-10-11T06:31:19.144Z,188.00
2018-10-11T06:32:19.054Z,196.00
2018-10-11T06:33:18.996Z,216.00
2018-10-11T06:34:18.897Z,228.00
2018-10-11T06:35:18.906Z,252.00
2018-10-11T06:36:18.795Z,272.00
2018-10-11T06:37:18.718Z,296.00
2018-10-11T06:38:18.577Z,308.00
2018-10-11T06:39:18.525Z,324.00
2018-10-11T06:40:18.417Z,328.00
2018-10-11T06:41:18.435Z,340.00
2018-10-11T06:42:18.366Z,348.00
2018-10-11T06:43:18.246Z,356.00
2018-10-11T06:44:18.102Z,368.00
2018-10-11T06:45:18.055Z,376.00
2018-10-11T06:46:17.942Z,388.00
2018-10-11T06:47:17.869Z,396.00
2018-10-11T06:48:17.784Z,404.00
2018-10-11T06:49:17.774Z,416.00
2018-10-11T06:50:17.647Z,424.00
2018-10-11T06:51:17.582Z,436.00
2018-10-11T06:52:17.465Z,448.00
2018-10-11T06:53:17.497Z,460.00
2018-10-11T06:54:17.314Z,476.00
2018-10-11T06:55:17.303Z,488.00
2018-10-11T06:56:17.151Z,504.00
2018-10-11T06:57:17.081Z,516.00
2018-10-11T06:58:16.998Z,532.00
2018-10-11T06:59:16.923Z,548.00
2018-10-11T07:00:16.832Z,560.00
2018-10-11T07:01:16.761Z,580.00
2018-10-11T07:02:16.676Z,596.00
2018-10-11T07:03:16.638Z,612.00
2018-10-11T07:04:16.517Z,636.00
2018-10-11T07:05:16.549Z,656.00
2018-10-11T07:06:16.363Z,672.00
2018-10-11T07:07:16.387Z,700.00
2018-10-11T07:08:16.205Z,732.00
2018-10-11T07:09:16.166Z,764.00
2018-10-11T07:10:16.046Z,812.00
2018-10-11T07:11:16.078Z,860.00
2018-10-11T07:12:15.888Z,908.00
2018-10-11T07:13:15.885Z,968.00
2018-10-11T07:14:15.734Z,1032.00
2018-10-11T07:15:15.693Z,1072.00
2018-10-11T07:16:15.579Z,1124.00
2018-10-11T07:17:15.598Z,1180.00
2018-10-11T07:18:15.420Z,1244.00
2018-10-11T07:19:15.453Z,1304.00
2018-10-11T07:20:15.265Z,1376.00
2018-10-11T07:21:15.225Z,1436.00
2018-10-11T07:22:15.108Z,1476.00
2018-10-11T07:23:15.132Z,1500.00
2018-10-11T07:24:14.948Z,1512.00
2018-10-11T07:25:14.941Z,1520.00
2018-10-11T07:26:14.800Z,1556.00
2018-10-11T07:27:14.750Z,1580.00
2018-10-11T07:28:14.640Z,1604.00
2018-10-11T07:29:14.661Z,1656.00
2018-10-11T07:30:14.485Z,1716.00
2018-10-11T07:31:14.468Z,1692.00
2018-10-11T07:32:14.329Z,1680.00
2018-10-11T07:33:14.281Z,1692.00
2018-10-11T07:34:14.176Z,1708.00
2018-10-11T07:35:14.319Z,1720.00
2018-10-11T07:36:14.020Z,1748.00
2018-10-11T07:37:13.999Z,1784.00
2018-10-11T07:38:13.865Z,1800.00
2018-10-11T07:39:13.805Z,1820.00
2018-10-11T07:40:13.755Z,1840.00
2018-10-11T07:41:13.722Z,1868.00
2018-10-11T07:42:13.558Z,1864.00
2018-10-11T07:43:13.525Z,1948.00
2018-10-11T07:44:13.403Z,2040.00
2018-10-11T07:45:13.336Z,2032.00
2018-10-11T07:46:13.254Z,2020.00
2018-10-11T07:47:13.313Z,2028.00
2018-10-11T07:48:13.092Z,2040.00
2018-10-11T07:49:13.060Z,2072.00
2018-10-11T07:50:12.949Z,2100.00
2018-10-11T07:51:12.974Z,2116.00
2018-10-11T07:52:12.789Z,2168.00
2018-10-11T07:53:12.774Z,2396.00
2018-10-11T07:54:12.637Z,2792.00
2018-10-11T07:55:12.582Z,2912.00
2018-10-11T07:56:12.485Z,2984.00
2018-10-11T07:57:12.496Z,2940.00
2018-10-11T07:58:12.331Z,2788.00
2018-10-11T07:59:12.297Z,2544.00
2018-10-11T08:00:12.178Z,2536.00
2018-10-11T08:01:12.276Z,2508.00
2018-10-11T08:02:12.028Z,2528.00
2018-10-11T08:03:12.021Z,2604.00
2018-10-11T08:04:11.881Z,2672.00
2018-10-11T08:05:11.830Z,2608.00
2018-10-11T08:06:11.727Z,2384.00
2018-10-11T08:07:11.806Z,2388.00
2018-10-11T08:08:11.574Z,2472.00
2018-10-11T08:09:11.664Z,2476.00
2018-10-11T08:10:11.461Z,2496.00
2018-10-11T08:11:11.523Z,2496.00
2018-10-11T08:12:11.276Z,2472.00
2018-10-11T08:13:11.267Z,2480.00
2018-10-11T08:14:11.121Z,2504.00
2018-10-11T08:15:11.077Z,2496.00
2018-10-11T08:16:11.106Z,2492.00
2018-10-11T08:17:11.377Z,2500.00
2018-10-11T08:18:10.820Z,2504.00
2018-10-11T08:19:10.905Z,2500.00
2018-10-11T08:20:10.739Z,2512.00
2018-10-11T08:21:10.755Z,2524.00
2018-10-11T08:22:10.521Z,2552.00
2018-10-11T08:23:10.524Z,2576.00
2018-10-11T08:24:10.428Z,2584.00
2018-10-11T08:25:10.476Z,2592.00
2018-10-11T08:26:10.693Z,2588.00
2018-10-11T08:27:10.301Z,2596.00
2018-10-11T08:28:10.075Z,2612.00
2018-10-11T08:29:10.045Z,2620.00
2018-10-11T08:30:09.922Z,2644.00
2018-10-11T08:31:09.957Z,2664.00
2018-10-11T08:32:09.849Z,2672.00
2018-10-11T08:33:09.738Z,2680.00
2018-10-11T08:34:09.632Z,2740.00
2018-10-11T08:35:09.590Z,2696.00
2018-10-11T08:36:09.482Z,2696.00
2018-10-11T08:37:09.483Z,2700.00
2018-10-11T08:38:09.524Z,2692.00
2018-10-11T08:39:09.263Z,2720.00
2018-10-11T08:40:09.177Z,2740.00
2018-10-11T08:41:09.200Z,2740.00
2018-10-11T08:42:09.034Z,2748.00
2018-10-11T08:43:08.967Z,2776.00
2018-10-11T08:44:08.922Z,2792.00
2018-10-11T08:45:08.921Z,2784.00
2018-10-11T08:46:08.736Z,2800.00
2018-10-11T08:47:08.730Z,2816.00
2018-10-11T08:48:08.589Z,2840.00
2018-10-11T08:49:08.619Z,2836.00
2018-10-11T08:50:08.448Z,2804.00
2018-10-11T08:51:08.451Z,2744.00
2018-10-11T08:52:08.294Z,2704.00
2018-10-11T08:53:08.230Z,2736.00
2018-10-11T08:54:08.150Z,2748.00
2018-10-11T08:55:08.169Z,2752.00
2018-10-11T08:56:08.043Z,2764.00
2018-10-11T08:57:07.978Z,2768.00
2018-10-11T08:58:07.860Z,2780.00
2018-10-11T08:59:07.901Z,2788.00
2018-10-11T09:00:07.709Z,2800.00
2018-10-11T09:01:07.699Z,2808.00
2018-10-11T09:02:07.561Z,2820.00
2018-10-11T09:03:07.510Z,2828.00
2018-10-11T09:04:07.531Z,2812.00
2018-10-11T09:05:07.498Z,2820.00
2018-10-11T09:06:07.268Z,2832.00
2018-10-11T09:07:07.228Z,2820.00
2018-10-11T09:08:07.123Z,2820.00
2018-10-11T09:09:07.141Z,2804.00
2018-10-11T09:10:06.981Z,2808.00
2018-10-11T09:11:07.070Z,2816.00
2018-10-11T09:12:06.824Z,2720.00
2018-10-11T09:13:06.858Z,2740.00
2018-10-11T09:14:06.683Z,2756.00
2018-10-11T09:15:06.666Z,2772.00
2018-10-11T09:16:06.536Z,2784.00
2018-10-11T09:17:06.596Z,2784.00
2018-10-11T09:18:06.391Z,2804.00
2018-10-11T09:19:06.386Z,2780.00
2018-10-11T09:20:06.244Z,2800.00
2018-10-11T09:21:06.194Z,2808.00
2018-10-11T09:22:06.101Z,2796.00
2018-10-11T09:23:06.138Z,2812.00
2018-10-11T09:24:05.955Z,2812.00
2018-10-11T09:25:05.912Z,2812.00
2018-10-11T09:26:05.811Z,2804.00
2018-10-11T09:27:05.830Z,2804.00
2018-10-11T09:28:05.669Z,2808.00
2018-10-11T09:29:05.634Z,2804.00
2018-10-11T09:30:05.518Z,2796.00
2018-10-11T09:31:05.541Z,2788.00
2018-10-11T09:32:05.981Z,2796.00
2018-10-11T09:33:05.353Z,2800.00
2018-10-11T09:34:05.227Z,2784.00
2018-10-11T09:35:05.263Z,2796.00
2018-10-11T09:36:05.084Z,2820.00
2018-10-11T09:37:05.079Z,2796.00
2018-10-11T09:38:04.942Z,2780.00
2018-10-11T09:39:04.984Z,2764.00
2018-10-11T09:40:04.796Z,2744.00
2018-10-11T09:41:04.797Z,2740.00
2018-10-11T09:42:04.650Z,2740.00
2018-10-11T09:43:04.639Z,2728.00
2018-10-11T09:44:04.507Z,2720.00
2018-10-11T09:45:04.511Z,2708.00
2018-10-11T09:46:04.363Z,2708.00
2018-10-11T09:47:04.318Z,2708.00
2018-10-11T09:48:04.220Z,2700.00
2018-10-11T09:49:04.236Z,2688.00
2018-10-11T09:50:04.079Z,2684.00
2018-10-11T09:51:04.041Z,2688.00
2018-10-11T09:52:03.932Z,2700.00
2018-10-11T09:53:03.950Z,2676.00
2018-10-11T09:54:03.788Z,2668.00
2018-10-11T09:55:03.762Z,2660.00
2018-10-11T09:56:03.647Z,2644.00
2018-10-11T09:57:03.671Z,2640.00
2018-10-11T09:58:03.501Z,2632.00
2018-10-11T09:59:03.478Z,2608.00
2018-10-11T10:00:03.355Z,2608.00
2018-10-11T10:01:03.388Z,2616.00
2018-10-11T10:02:03.263Z,2604.00
2018-10-11T10:03:03.198Z,2604.00
2018-10-11T10:04:03.073Z,2584.00
2018-10-11T10:05:03.107Z,2576.00
2018-10-11T10:06:02.930Z,2568.00
2018-10-11T10:07:02.916Z,2564.00
2018-10-11T10:08:02.785Z,2568.00
2018-10-11T10:09:02.828Z,2560.00
2018-10-11T10:10:02.706Z,2560.00
2018-10-11T10:11:02.637Z,2556.00
2018-10-11T10:12:02.497Z,2552.00
2018-10-11T10:13:02.446Z,2532.00
2018-10-11T10:14:02.364Z,2536.00
2018-10-11T10:15:02.368Z,2528.00
2018-10-11T10:16:02.213Z,2520.00
2018-10-11T10:17:02.165Z,2512.00
2018-10-11T10:18:02.070Z,2508.00
2018-10-11T10:19:02.075Z,2508.00
2018-10-11T10:20:01.930Z,2496.00
2018-10-11T10:21:01.934Z,2488.00
2018-10-11T10:22:01.787Z,2488.00
2018-10-11T10:23:01.796Z,2476.00
2018-10-11T10:24:01.649Z,2476.00
2018-10-11T10:25:01.605Z,2480.00
2018-10-11T10:26:01.503Z,2460.00
2018-10-11T10:27:01.531Z,2452.00
2018-10-11T10:28:01.357Z,2424.00
2018-10-11T10:29:01.323Z,2420.00
2018-10-11T10:30:01.221Z,2416.00
2018-10-11T10:31:01.240Z,2404.00
2018-10-11T10:32:01.076Z,2404.00
2018-10-11T10:33:01.040Z,2400.00
2018-10-11T10:34:01.022Z,2388.00
2018-10-11T10:35:00.954Z,2436.00
2018-10-11T10:36:00.793Z,2432.00
2018-10-11T10:37:00.762Z,2412.00
2018-10-11T10:38:00.646Z,2408.00
2018-10-11T10:39:00.674Z,2404.00
2018-10-11T10:40:00.595Z,2404.00
2018-10-11T10:41:00.483Z,2384.00
2018-10-11T10:42:00.363Z,2380.00
2018-10-11T10:43:00.298Z,2376.00
2018-10-11T10:44:00.301Z,2360.00
2018-10-11T10:45:00.160Z,2356.00
2018-10-11T10:46:00.084Z,2348.00
2018-10-11T10:47:00.111Z,2336.00
2018-10-11T10:47:59.944Z,2332.00
2018-10-11T10:48:59.879Z,2308.00
2018-10-11T10:49:59.802Z,2304.00
2018-10-11T10:50:59.731Z,2300.00
2018-10-11T10:51:59.661Z,2300.00
2018-10-11T10:52:59.643Z,2264.00
2018-10-11T10:53:59.519Z,2276.00
2018-10-11T10:54:59.462Z,2264.00
2018-10-11T10:55:59.378Z,2252.00
2018-10-11T10:56:59.307Z,2236.00
2018-10-11T10:57:59.266Z,2236.00
2018-10-11T10:58:59.168Z,2216.00
2018-10-11T10:59:59.100Z,2216.00
2018-10-11T11:00:59.027Z,2204.00
2018-10-11T11:01:58.992Z,2196.00
2018-10-11T11:02:58.886Z,2188.00
2018-10-11T11:03:58.896Z,2176.00
2018-10-11T11:04:58.748Z,2168.00
2018-10-11T11:05:58.674Z,2160.00
2018-10-11T11:06:58.716Z,2156.00
2018-10-11T11:07:58.534Z,2132.00
2018-10-11T11:08:58.532Z,2132.00
2018-10-11T11:09:58.395Z,2120.00
2018-10-11T11:10:58.434Z,2116.00
2018-10-11T11:11:58.253Z,2096.00
2018-10-11T11:12:58.246Z,2100.00
2018-10-11T11:13:58.114Z,2088.00
2018-10-11T11:14:58.157Z,2080.00
2018-10-11T11:15:57.974Z,2068.00
2018-10-11T11:16:57.965Z,2064.00
2018-10-11T11:17:57.838Z,2052.00
2018-10-11T11:18:57.936Z,2048.00
2018-10-11T11:19:57.704Z,2036.00
2018-10-11T11:20:57.684Z,2024.00
2018-10-11T11:21:57.549Z,2024.00
2018-10-11T11:22:57.596Z,2016.00
2018-10-11T11:23:57.411Z,2012.00
2018-10-11T11:24:57.407Z,2008.00
2018-10-11T11:25:57.278Z,2008.00
2018-10-11T11:26:57.319Z,1988.00
2018-10-11T11:27:57.131Z,1984.00
2018-10-11T11:28:57.125Z,1976.00
2018-10-11T11:29:56.989Z,1968.00
2018-10-11T11:30:57.044Z,1964.00
2018-10-11T11:31:56.851Z,1964.00
2018-10-11T11:32:56.854Z,1960.00
2018-10-11T11:33:56.711Z,1948.00
2018-10-11T11:34:56.757Z,1948.00
2018-10-11T11:35:56.573Z,1940.00
2018-10-11T11:36:56.562Z,1928.00
2018-10-11T11:37:56.431Z,1920.00
2018-10-11T11:38:56.478Z,1912.00
2018-10-11T11:39:56.312Z,1904.00
2018-10-11T11:40:56.289Z,1900.00
2018-10-11T11:41:56.152Z,1888.00
2018-10-11T11:42:56.200Z,1892.00
2018-10-11T11:43:56.014Z,1880.00
2018-10-11T11:44:56.009Z,1876.00
2018-10-11T11:45:56.029Z,1868.00
2018-10-11T11:46:55.918Z,1864.00
2018-10-11T11:47:55.738Z,1856.00
2018-10-11T11:48:55.729Z,1860.00
2018-10-11T11:49:55.596Z,1852.00
2018-10-11T11:50:55.641Z,1844.00
2018-10-11T11:51:55.457Z,1836.00
2018-10-11T11:52:55.455Z,1836.00
2018-10-11T11:53:55.319Z,1840.00
2018-10-11T11:54:55.363Z,1816.00
2018-10-11T11:55:55.179Z,1820.00
2018-10-11T11:56:55.171Z,1812.00
2018-10-11T11:57:55.084Z,1812.00
2018-10-11T11:58:55.082Z,1808.00
2018-10-11T11:59:54.902Z,1808.00
2018-10-11T12:00:54.887Z,1804.00
2018-10-11T12:01:54.763Z,1812.00
2018-10-11T12:02:54.798Z,1800.00
2018-10-11T12:03:54.624Z,1800.00
2018-10-11T12:04:54.617Z,1796.00
2018-10-11T12:05:54.486Z,1804.00
2018-10-11T12:06:54.521Z,1800.00
2018-10-11T12:07:54.347Z,1796.00
2018-10-11T12:08:54.331Z,1792.00
2018-10-11T12:09:54.206Z,1792.00
2018-10-11T12:10:54.268Z,1788.00
2018-10-11T12:11:54.075Z,1792.00
2018-10-11T12:12:54.055Z,1796.00
2018-10-11T12:13:53.927Z,1792.00
2018-10-11T12:14:53.965Z,1796.00
2018-10-11T12:15:53.791Z,1796.00
2018-10-11T12:16:53.773Z,1788.00
2018-10-11T12:17:53.654Z,1792.00
2018-10-11T12:18:53.684Z,1792.00
2018-10-11T12:19:53.514Z,1792.00
2018-10-11T12:20:53.492Z,1788.00
2018-10-11T12:21:53.403Z,1784.00
2018-10-11T12:22:53.312Z,1776.00
2018-10-11T12:23:53.232Z,1784.00
2018-10-11T12:24:53.258Z,1784.00
2018-10-11T12:25:53.099Z,1784.00
2018-10-11T12:26:53.125Z,1792.00
2018-10-11T12:27:52.964Z,1788.00
2018-10-11T12:28:53.024Z,1776.00
2018-10-11T12:29:52.822Z,1792.00
2018-10-11T12:30:52.844Z,1784.00
2018-10-11T12:31:52.688Z,1780.00
2018-10-11T12:32:52.655Z,1772.00
2018-10-11T12:33:52.545Z,1788.00
2018-10-11T12:34:52.565Z,1776.00
2018-10-11T12:35:52.408Z,1780.00
2018-10-11T12:36:52.375Z,1796.00
2018-10-11T12:37:52.270Z,1780.00
2018-10-11T12:38:52.382Z,1788.00